Fayette, IA

1:40 PM CDT on October 30, 2014 (GMT -0500)
Maplewood Dr | Change Station
CLOSE
Current Station
Personal Weather Station
Location: Oelwein, IA
Elevation: 1135 ft
Nearby Weather Stations

Elev 1135 ft 42.69 °N, 91.91 °W | Updated 9 seconds ago

Overcast
Overcast
53.5 °F
Feels Like 53.5 °F
N
1.1
Wind Variable Wind from South
Gusts 1.1 mph

Today
High -- | Low -- °F
--% Chance of Precip.
Yesterday
High -- | Low -- °F
Precip. -- in
7:38 AM 6:02 PM
Waxing Crescent, 46% visible
Pressure 30.05 in
Visibility 10.0 miles
Clouds Overcast 8500 ft
Dew Point 42 °F
Humidity 65%
Rainfall 0.00 in
Snow Depth Not available.
UV 1 out of 12
Pollen .30 out of 12
Air Quality Not available.
Flu Activity Not available.
METAR KOLZ 301835Z AUTO 16004KT 10SM OVC085 11/03 A3005 RMK AO2

More Conditions Fewer Conditions

Pressure 30.05 in
Visibility 10.0 miles
Clouds Overcast 8500 ft
Dew Point 42 °F
Humidity 65%
Rainfall 0.00 in
Snow Depth Not available.
UV 1 out of 12
Pollen .30 out of 12
Air Quality Not available.
Flu Activity Not available.
METAR KOLZ 301835Z AUTO 16004KT 10SM OVC085 11/03 A3005 RMK AO2

More Conditions Fewer Conditions

10-Day Weather Forecast

Almanac

Astronomy

Oct. 30, 2014 Rise Set
Actual Time
Civil Twilight
Nautical Twilight
Astronomical Twilight
Moon
Length of Visible Light
Length of Day
Tomorrow will be .
, % of the Moon is Illuminated

Today's Extremes

State Highs State Lows

Community

WunderPhotos

Upload Photos

1,766,425 photos uploaded!

WunderBlogs® & News

Nearby

Air Quality

  Air Quality AQ Index Pollutant
Not available.

Snow Depth

Station Depth Elevation

Earthquake Activity

City Distance Mag. Time & Date
Minimum magnitude displayed is 2.5.

Coastal Water Temperatures

Place Temperature

Nearby Weather Stations